Arlington, Alabama
Current Conditions -  °F | °C
As of 10:15 PM on Saturday 22 Nov 2014 (Local Time) from KDYA Reporting Station
Overcast Overcast  
Wind Chill: 60°   Ceiling: 1400
Heat Index: 60°   Visibility: 10mi
Dew Point: 54°   Wind: 9mph
Humidity: 81%   Direction: 120°ESE
Pressure: 30.05"   Gusts: NA
Location:  32.06°N, 87.59°W
Report Text: KDYA 230415Z AUTO 12008KT 10SM OVC014 16/12 A3005 RMK AO2 T01550122
Loading
Personal Weather Stations






























Interactive Weather Map New forecast layout! Learn more

10-Day Weather Forecast

Advertisements
Track Severe Weather on mobile